Dimitrovgrad, Serbia
Current Conditions -  °F | °C
As of 7:00 PM on Friday 28 Nov 2014 (Local Time) from LBSF Reporting Station
Scattered Clouds Scattered Clouds  
Wind Chill: 43°   Ceiling: Unl
Heat Index: 43°   Visibility: 5mi
Dew Point: 37°   Wind: 2mph
Humidity: 81%   Direction: NA
Pressure: 30.18"   Gusts: NA
Location:  43.01°N, 22.78°E
Report Text: LBSF 281700Z VRB01MPS 8000 SCT059 06/03 Q1022 NOSIG
Loading
Personal Weather Stations






























Interactive Weather Map New forecast layout! Learn more

10-Day Weather Forecast

Advertisements
Track Severe Weather on mobile